sensor_id;sensor_type;location;lat;lon;timestamp;temperature;humidity
68217;DHT22;55037;52.354;4.992;2023-05-27T00:01:50;12.90;61.90
68217;DHT22;55037;52.354;4.992;2023-05-27T00:04:18;12.90;61.80
68217;DHT22;55037;52.354;4.992;2023-05-27T00:06:45;12.90;61.70
68217;DHT22;55037;52.354;4.992;2023-05-27T00:09:13;12.90;61.60
68217;DHT22;55037;52.354;4.992;2023-05-27T00:11:41;12.80;61.80
68217;DHT22;55037;52.354;4.992;2023-05-27T00:14:10;12.80;61.80
68217;DHT22;55037;52.354;4.992;2023-05-27T00:16:38;12.80;61.90
68217;DHT22;55037;52.354;4.992;2023-05-27T00:19:05;12.70;61.90
68217;DHT22;55037;52.354;4.992;2023-05-27T00:21:33;12.70;61.90
68217;DHT22;55037;52.354;4.992;2023-05-27T00:24:00;12.70;62.20
68217;DHT22;55037;52.354;4.992;2023-05-27T00:26:27;12.70;62.20
68217;DHT22;55037;52.354;4.992;2023-05-27T00:28:55;12.70;62.30
68217;DHT22;55037;52.354;4.992;2023-05-27T00:31:22;12.60;62.40
68217;DHT22;55037;52.354;4.992;2023-05-27T00:33:52;12.60;62.30
68217;DHT22;55037;52.354;4.992;2023-05-27T00:36:19;12.60;62.80
68217;DHT22;55037;52.354;4.992;2023-05-27T00:38:47;12.50;62.70
68217;DHT22;55037;52.354;4.992;2023-05-27T00:41:14;12.50;62.70
68217;DHT22;55037;52.354;4.992;2023-05-27T00:43:42;12.50;62.80
68217;DHT22;55037;52.354;4.992;2023-05-27T00:46:09;12.50;62.70
68217;DHT22;55037;52.354;4.992;2023-05-27T00:48:37;12.40;62.80
68217;DHT22;55037;52.354;4.992;2023-05-27T00:51:04;12.40;62.90
68217;DHT22;55037;52.354;4.992;2023-05-27T00:53:42;12.40;62.90
68217;DHT22;55037;52.354;4.992;2023-05-27T00:56:12;12.40;63.00
68217;DHT22;55037;52.354;4.992;2023-05-27T00:58:43;12.40;63.10
68217;DHT22;55037;52.354;4.992;2023-05-27T01:01:11;12.30;63.30
68217;DHT22;55037;52.354;4.992;2023-05-27T01:03:39;12.30;63.60
68217;DHT22;55037;52.354;4.992;2023-05-27T01:06:20;12.30;63.60
68217;DHT22;55037;52.354;4.992;2023-05-27T01:09:47;12.30;63.60
68217;DHT22;55037;52.354;4.992;2023-05-27T01:12:19;12.30;63.60
68217;DHT22;55037;52.354;4.992;2023-05-27T01:14:51;12.20;64.00
68217;DHT22;55037;52.354;4.992;2023-05-27T01:17:21;12.20;64.70
68217;DHT22;55037;52.354;4.992;2023-05-27T01:19:51;12.20;64.10
68217;DHT22;55037;52.354;4.992;2023-05-27T01:22:19;12.10;63.90
68217;DHT22;55037;52.354;4.992;2023-05-27T01:24:47;12.10;64.20
68217;DHT22;55037;52.354;4.992;2023-05-27T01:27:16;12.10;64.20
68217;DHT22;55037;52.354;4.992;2023-05-27T01:29:43;12.10;64.50
68217;DHT22;55037;52.354;4.992;2023-05-27T01:32:30;12.10;64.50
68217;DHT22;55037;52.354;4.992;2023-05-27T01:37:41;12.10;65.10
68217;DHT22;55037;52.354;4.992;2023-05-27T01:40:11;12.00;65.30
68217;DHT22;55037;52.354;4.992;2023-05-27T01:42:41;12.00;65.00
68217;DHT22;55037;52.354;4.992;2023-05-27T01:45:11;12.00;65.70
68217;DHT22;55037;52.354;4.992;2023-05-27T01:47:39;12.00;65.90
68217;DHT22;55037;52.354;4.992;2023-05-27T01:50:07;12.00;66.20
68217;DHT22;55037;52.354;4.992;2023-05-27T01:52:35;12.00;66.10
68217;DHT22;55037;52.354;4.992;2023-05-27T01:55:03;12.00;66.10
68217;DHT22;55037;52.354;4.992;2023-05-27T01:57:32;12.00;66.00
68217;DHT22;55037;52.354;4.992;2023-05-27T02:00:00;12.00;66.30
68217;DHT22;55037;52.354;4.992;2023-05-27T02:02:27;11.90;66.30
68217;DHT22;55037;52.354;4.992;2023-05-27T02:04:55;11.90;66.30
68217;DHT22;55037;52.354;4.992;2023-05-27T02:07:22;11.90;66.30
68217;DHT22;55037;52.354;4.992;2023-05-27T02:09:50;11.90;66.40
68217;DHT22;55037;52.354;4.992;2023-05-27T02:12:18;11.80;66.20
68217;DHT22;55037;52.354;4.992;2023-05-27T02:14:46;11.80;66.50
68217;DHT22;55037;52.354;4.992;2023-05-27T02:17:13;11.80;66.70
68217;DHT22;55037;52.354;4.992;2023-05-27T02:19:41;11.80;66.70
68217;DHT22;55037;52.354;4.992;2023-05-27T02:22:11;11.80;67.10
68217;DHT22;55037;52.354;4.992;2023-05-27T02:24:38;11.80;67.30
68217;DHT22;55037;52.354;4.992;2023-05-27T02:27:06;11.80;67.30
68217;DHT22;55037;52.354;4.992;2023-05-27T02:29:33;11.70;67.10
68217;DHT22;55037;52.354;4.992;2023-05-27T02:32:01;11.70;67.30
68217;DHT22;55037;52.354;4.992;2023-05-27T02:34:30;11.70;67.30
68217;DHT22;55037;52.354;4.992;2023-05-27T02:36:57;11.70;67.60
68217;DHT22;55037;52.354;4.992;2023-05-27T02:39:27;11.70;67.50
68217;DHT22;55037;52.354;4.992;2023-05-27T02:41:54;11.70;67.50
68217;DHT22;55037;52.354;4.992;2023-05-27T02:44:21;11.70;67.50
68217;DHT22;55037;52.354;4.992;2023-05-27T02:46:48;11.70;67.50
68217;DHT22;55037;52.354;4.992;2023-05-27T02:49:16;11.70;67.70
68217;DHT22;55037;52.354;4.992;2023-05-27T02:51:44;11.70;67.80
68217;DHT22;55037;52.354;4.992;2023-05-27T02:54:11;11.60;67.70
68217;DHT22;55037;52.354;4.992;2023-05-27T02:56:38;11.70;67.70
68217;DHT22;55037;52.354;4.992;2023-05-27T02:59:06;11.60;67.80
68217;DHT22;55037;52.354;4.992;2023-05-27T03:01:33;11.60;68.00
68217;DHT22;55037;52.354;4.992;2023-05-27T03:04:02;11.60;68.00
68217;DHT22;55037;52.354;4.992;2023-05-27T03:06:31;11.60;67.80
68217;DHT22;55037;52.354;4.992;2023-05-27T03:08:59;11.60;68.00
68217;DHT22;55037;52.354;4.992;2023-05-27T03:11:26;11.50;67.90
68217;DHT22;55037;52.354;4.992;2023-05-27T03:13:54;11.50;68.00
68217;DHT22;55037;52.354;4.992;2023-05-27T03:16:21;11.50;68.20
68217;DHT22;55037;52.354;4.992;2023-05-27T03:18:50;11.50;68.40
68217;DHT22;55037;52.354;4.992;2023-05-27T03:21:17;11.50;68.80
68217;DHT22;55037;52.354;4.992;2023-05-27T03:23:45;11.50;68.50
68217;DHT22;55037;52.354;4.992;2023-05-27T03:26:13;11.50;68.80
68217;DHT22;55037;52.354;4.992;2023-05-27T03:28:40;11.50;68.70
68217;DHT22;55037;52.354;4.992;2023-05-27T03:31:08;11.50;68.80
68217;DHT22;55037;52.354;4.992;2023-05-27T03:33:58;11.50;68.50
68217;DHT22;55037;52.354;4.992;2023-05-27T03:36:26;11.50;68.60
68217;DHT22;55037;52.354;4.992;2023-05-27T03:38:53;11.50;68.70
68217;DHT22;55037;52.354;4.992;2023-05-27T03:41:22;11.50;68.60
68217;DHT22;55037;52.354;4.992;2023-05-27T03:43:49;11.50;68.80
68217;DHT22;55037;52.354;4.992;2023-05-27T03:46:17;11.60;69.00
68217;DHT22;55037;52.354;4.992;2023-05-27T03:48:45;11.50;68.70
68217;DHT22;55037;52.354;4.992;2023-05-27T03:51:13;11.60;69.50
68217;DHT22;55037;52.354;4.992;2023-05-27T03:53:43;11.60;69.20
68217;DHT22;55037;52.354;4.992;2023-05-27T03:56:10;11.60;69.20
68217;DHT22;55037;52.354;4.992;2023-05-27T03:58:38;11.60;69.10
68217;DHT22;55037;52.354;4.992;2023-05-27T04:01:05;11.60;69.00
68217;DHT22;55037;52.354;4.992;2023-05-27T04:03:33;11.60;69.10
68217;DHT22;55037;52.354;4.992;2023-05-27T04:06:00;11.70;69.20
68217;DHT22;55037;52.354;4.992;2023-05-27T04:08:28;11.70;69.20
68217;DHT22;55037;52.354;4.992;2023-05-27T04:10:55;11.70;69.10
68217;DHT22;55037;52.354;4.992;2023-05-27T04:13:24;11.70;69.00
68217;DHT22;55037;52.354;4.992;2023-05-27T04:15:52;11.70;69.10
68217;DHT22;55037;52.354;4.992;2023-05-27T04:18:20;11.70;69.50
68217;DHT22;55037;52.354;4.992;2023-05-27T04:20:48;11.80;69.70
68217;DHT22;55037;52.354;4.992;2023-05-27T04:23:17;11.80;69.40
68217;DHT22;55037;52.354;4.992;2023-05-27T04:25:45;11.80;69.50
68217;DHT22;55037;52.354;4.992;2023-05-27T04:28:13;11.80;69.40
68217;DHT22;55037;52.354;4.992;2023-05-27T04:30:45;11.90;69.20
68217;DHT22;55037;52.354;4.992;2023-05-27T04:33:20;11.90;69.10
68217;DHT22;55037;52.354;4.992;2023-05-27T04:35:49;11.90;69.20
68217;DHT22;55037;52.354;4.992;2023-05-27T04:38:17;12.00;69.10
68217;DHT22;55037;52.354;4.992;2023-05-27T04:40:55;12.00;69.30
68217;DHT22;55037;52.354;4.992;2023-05-27T04:43:39;12.10;69.30
68217;DHT22;55037;52.354;4.992;2023-05-27T04:46:10;12.10;69.10
68217;DHT22;55037;52.354;4.992;2023-05-27T04:48:37;12.20;69.30
68217;DHT22;55037;52.354;4.992;2023-05-27T04:51:04;12.20;69.00
68217;DHT22;55037;52.354;4.992;2023-05-27T04:53:32;12.30;69.00
68217;DHT22;55037;52.354;4.992;2023-05-27T04:56:01;12.30;69.00
68217;DHT22;55037;52.354;4.992;2023-05-27T04:58:30;12.40;68.80
68217;DHT22;55037;52.354;4.992;2023-05-27T05:00:59;12.40;68.60
68217;DHT22;55037;52.354;4.992;2023-05-27T05:03:27;12.50;68.50
68217;DHT22;55037;52.354;4.992;2023-05-27T05:06:05;12.50;68.40
68217;DHT22;55037;52.354;4.992;2023-05-27T05:08:33;12.50;68.40
68217;DHT22;55037;52.354;4.992;2023-05-27T05:11:00;12.60;68.40
68217;DHT22;55037;52.354;4.992;2023-05-27T05:13:28;12.70;68.30
68217;DHT22;55037;52.354;4.992;2023-05-27T05:15:56;12.80;68.10
68217;DHT22;55037;52.354;4.992;2023-05-27T05:18:23;12.80;67.90
68217;DHT22;55037;52.354;4.992;2023-05-27T05:20:53;12.90;67.70
68217;DHT22;55037;52.354;4.992;2023-05-27T05:23:30;13.00;67.50
68217;DHT22;55037;52.354;4.992;2023-05-27T05:25:57;13.00;67.30
68217;DHT22;55037;52.354;4.992;2023-05-27T05:28:35;13.10;67.10
68217;DHT22;55037;52.354;4.992;2023-05-27T05:31:09;13.10;67.00
68217;DHT22;55037;52.354;4.992;2023-05-27T05:33:37;13.20;66.80
68217;DHT22;55037;52.354;4.992;2023-05-27T05:36:06;13.30;66.80
68217;DHT22;55037;52.354;4.992;2023-05-27T05:38:46;13.40;66.50
68217;DHT22;55037;52.354;4.992;2023-05-27T05:41:13;13.50;66.20
68217;DHT22;55037;52.354;4.992;2023-05-27T05:43:41;13.50;66.10
68217;DHT22;55037;52.354;4.992;2023-05-27T05:46:09;13.70;66.10
68217;DHT22;55037;52.354;4.992;2023-05-27T05:48:36;13.70;65.50
68217;DHT22;55037;52.354;4.992;2023-05-27T05:51:05;13.80;65.40
68217;DHT22;55037;52.354;4.992;2023-05-27T05:53:33;13.90;65.00
68217;DHT22;55037;52.354;4.992;2023-05-27T05:56:00;14.10;65.10
68217;DHT22;55037;52.354;4.992;2023-05-27T05:58:28;14.20;64.50
68217;DHT22;55037;52.354;4.992;2023-05-27T06:00:56;14.30;64.30
68217;DHT22;55037;52.354;4.992;2023-05-27T06:03:50;14.40;64.10
68217;DHT22;55037;52.354;4.992;2023-05-27T06:06:29;14.60;64.00
68217;DHT22;55037;52.354;4.992;2023-05-27T06:09:16;14.80;63.30
68217;DHT22;55037;52.354;4.992;2023-05-27T06:11:44;14.90;62.90
68217;DHT22;55037;52.354;4.992;2023-05-27T06:14:12;15.00;62.60
68217;DHT22;55037;52.354;4.992;2023-05-27T06:16:39;15.10;62.00
68217;DHT22;55037;52.354;4.992;2023-05-27T06:19:08;15.20;61.70
68217;DHT22;55037;52.354;4.992;2023-05-27T06:21:36;15.30;61.60
68217;DHT22;55037;52.354;4.992;2023-05-27T06:24:24;15.20;61.00
68217;DHT22;55037;52.354;4.992;2023-05-27T06:27:09;15.20;61.10
68217;DHT22;55037;52.354;4.992;2023-05-27T06:29:37;15.20;60.80
68217;DHT22;55037;52.354;4.992;2023-05-27T06:32:05;15.20;60.80
68217;DHT22;55037;52.354;4.992;2023-05-27T06:34:34;15.20;60.50
68217;DHT22;55037;52.354;4.992;2023-05-27T06:37:01;15.30;60.30
68217;DHT22;55037;52.354;4.992;2023-05-27T06:39:29;15.30;60.00
68217;DHT22;55037;52.354;4.992;2023-05-27T06:41:56;15.30;60.20
68217;DHT22;55037;52.354;4.992;2023-05-27T06:44:59;15.40;60.10
68217;DHT22;55037;52.354;4.992;2023-05-27T06:47:28;15.40;59.70
68217;DHT22;55037;52.354;4.992;2023-05-27T06:49:55;15.50;59.60
68217;DHT22;55037;52.354;4.992;2023-05-27T06:52:23;15.60;59.30
68217;DHT22;55037;52.354;4.992;2023-05-27T06:55:11;15.60;59.40
68217;DHT22;55037;52.354;4.992;2023-05-27T06:57:57;15.70;59.30
68217;DHT22;55037;52.354;4.992;2023-05-27T07:00:34;15.80;58.80
68217;DHT22;55037;52.354;4.992;2023-05-27T07:03:19;15.90;58.70
68217;DHT22;55037;52.354;4.992;2023-05-27T07:05:46;16.00;58.50
68217;DHT22;55037;52.354;4.992;2023-05-27T07:08:14;16.10;58.50
68217;DHT22;55037;52.354;4.992;2023-05-27T07:10:42;16.30;57.90
68217;DHT22;55037;52.354;4.992;2023-05-27T07:13:10;16.20;57.20
68217;DHT22;55037;52.354;4.992;2023-05-27T07:15:45;16.30;57.70
68217;DHT22;55037;52.354;4.992;2023-05-27T07:18:13;16.40;57.40
68217;DHT22;55037;52.354;4.992;2023-05-27T07:20:41;16.60;57.40
68217;DHT22;55037;52.354;4.992;2023-05-27T07:23:11;16.80;57.00
68217;DHT22;55037;52.354;4.992;2023-05-27T07:25:39;17.00;56.40
68217;DHT22;55037;52.354;4.992;2023-05-27T07:28:07;17.10;56.00
68217;DHT22;55037;52.354;4.992;2023-05-27T07:30:41;17.30;55.70
68217;DHT22;55037;52.354;4.992;2023-05-27T07:33:08;17.50;55.30
68217;DHT22;55037;52.354;4.992;2023-05-27T07:35:36;17.70;55.20
68217;DHT22;55037;52.354;4.992;2023-05-27T07:38:04;18.00;54.20
68217;DHT22;55037;52.354;4.992;2023-05-27T07:40:31;18.30;53.20
68217;DHT22;55037;52.354;4.992;2023-05-27T07:42:58;18.60;52.60
68217;DHT22;55037;52.354;4.992;2023-05-27T07:45:26;18.80;52.10
68217;DHT22;55037;52.354;4.992;2023-05-27T07:47:53;19.00;51.20
68217;DHT22;55037;52.354;4.992;2023-05-27T07:50:20;19.10;50.40
68217;DHT22;55037;52.354;4.992;2023-05-27T07:53:02;19.30;50.30
68217;DHT22;55037;52.354;4.992;2023-05-27T07:55:30;19.50;49.50
68217;DHT22;55037;52.354;4.992;2023-05-27T07:57:57;19.50;49.10
68217;DHT22;55037;52.354;4.992;2023-05-27T08:00:30;19.70;48.50
68217;DHT22;55037;52.354;4.992;2023-05-27T08:02:59;19.80;47.80
68217;DHT22;55037;52.354;4.992;2023-05-27T08:05:45;19.80;48.00
68217;DHT22;55037;52.354;4.992;2023-05-27T08:08:28;20.10;47.70
68217;DHT22;55037;52.354;4.992;2023-05-27T08:11:13;20.30;46.90
68217;DHT22;55037;52.354;4.992;2023-05-27T08:13:58;20.30;46.50
68217;DHT22;55037;52.354;4.992;2023-05-27T08:16:43;20.10;45.50
68217;DHT22;55037;52.354;4.992;2023-05-27T08:19:23;20.10;46.30
68217;DHT22;55037;52.354;4.992;2023-05-27T08:21:59;20.20;46.20
68217;DHT22;55037;52.354;4.992;2023-05-27T08:24:58;20.20;45.80
68217;DHT22;55037;52.354;4.992;2023-05-27T08:27:52;20.20;45.80
68217;DHT22;55037;52.354;4.992;2023-05-27T08:30:29;20.30;46.10
68217;DHT22;55037;52.354;4.992;2023-05-27T08:33:18;20.40;45.50
68217;DHT22;55037;52.354;4.992;2023-05-27T08:35:45;20.60;45.50
68217;DHT22;55037;52.354;4.992;2023-05-27T08:38:14;20.70;45.30
68217;DHT22;55037;52.354;4.992;2023-05-27T08:40:41;21.00;44.90
68217;DHT22;55037;52.354;4.992;2023-05-27T08:43:09;21.30;44.20
68217;DHT22;55037;52.354;4.992;2023-05-27T08:45:41;21.40;43.30
68217;DHT22;55037;52.354;4.992;2023-05-27T08:48:10;21.40;42.90
68217;DHT22;55037;52.354;4.992;2023-05-27T08:50:39;21.50;42.70
68217;DHT22;55037;52.354;4.992;2023-05-27T08:53:07;21.60;42.20
68217;DHT22;55037;52.354;4.992;2023-05-27T08:55:37;21.70;42.00
68217;DHT22;55037;52.354;4.992;2023-05-27T08:58:10;21.80;41.60
68217;DHT22;55037;52.354;4.992;2023-05-27T09:00:43;22.00;41.80
68217;DHT22;55037;52.354;4.992;2023-05-27T09:03:17;22.20;41.00
68217;DHT22;55037;52.354;4.992;2023-05-27T09:05:45;22.30;40.70
68217;DHT22;55037;52.354;4.992;2023-05-27T09:08:13;22.40;40.40
68217;DHT22;55037;52.354;4.992;2023-05-27T09:10:41;22.70;40.20
68217;DHT22;55037;52.354;4.992;2023-05-27T09:13:09;23.80;39.30
68217;DHT22;55037;52.354;4.992;2023-05-27T09:15:37;25.50;35.80
68217;DHT22;55037;52.354;4.992;2023-05-27T09:18:05;27.00;33.50
68217;DHT22;55037;52.354;4.992;2023-05-27T09:20:33;28.70;31.50
68217;DHT22;55037;52.354;4.992;2023-05-27T09:23:02;30.60;29.00
68217;DHT22;55037;52.354;4.992;2023-05-27T09:25:30;32.50;26.50
68217;DHT22;55037;52.354;4.992;2023-05-27T09:27:57;34.30;24.20
68217;DHT22;55037;52.354;4.992;2023-05-27T09:30:25;35.40;22.80
68217;DHT22;55037;52.354;4.992;2023-05-27T09:33:01;36.30;22.00
68217;DHT22;55037;52.354;4.992;2023-05-27T09:35:37;37.20;21.00
68217;DHT22;55037;52.354;4.992;2023-05-27T09:38:07;37.80;20.30
68217;DHT22;55037;52.354;4.992;2023-05-27T09:40:36;38.00;19.70
68217;DHT22;55037;52.354;4.992;2023-05-27T09:43:05;38.30;19.30
68217;DHT22;55037;52.354;4.992;2023-05-27T09:45:33;38.20;18.70
68217;DHT22;55037;52.354;4.992;2023-05-27T09:48:01;38.20;18.40
68217;DHT22;55037;52.354;4.992;2023-05-27T09:50:30;37.60;18.40
68217;DHT22;55037;52.354;4.992;2023-05-27T09:52:58;36.50;19.10
68217;DHT22;55037;52.354;4.992;2023-05-27T09:55:40;35.00;20.00
68217;DHT22;55037;52.354;4.992;2023-05-27T09:58:09;33.30;21.40
68217;DHT22;55037;52.354;4.992;2023-05-27T10:00:38;31.70;22.50
68217;DHT22;55037;52.354;4.992;2023-05-27T10:03:08;30.40;23.60
68217;DHT22;55037;52.354;4.992;2023-05-27T10:05:37;29.50;24.50
68217;DHT22;55037;52.354;4.992;2023-05-27T10:08:06;29.10;25.30
68217;DHT22;55037;52.354;4.992;2023-05-27T10:10:53;29.00;25.70
68217;DHT22;55037;52.354;4.992;2023-05-27T10:13:23;29.50;25.60
68217;DHT22;55037;52.354;4.992;2023-05-27T10:15:52;30.60;24.90
68217;DHT22;55037;52.354;4.992;2023-05-27T10:18:25;32.20;23.40
68217;DHT22;55037;52.354;4.992;2023-05-27T10:20:53;34.00;21.60
68217;DHT22;55037;52.354;4.992;2023-05-27T10:23:39;35.90;20.30
68217;DHT22;55037;52.354;4.992;2023-05-27T10:26:07;37.80;19.20
68217;DHT22;55037;52.354;4.992;2023-05-27T10:28:37;39.50;17.90
68217;DHT22;55037;52.354;4.992;2023-05-27T10:31:11;40.70;16.90
68217;DHT22;55037;52.354;4.992;2023-05-27T10:33:42;41.30;16.10
68217;DHT22;55037;52.354;4.992;2023-05-27T10:36:24;40.90;16.00
68217;DHT22;55037;52.354;4.992;2023-05-27T10:38:57;40.80;16.10
68217;DHT22;55037;52.354;4.992;2023-05-27T10:41:24;41.10;15.90
68217;DHT22;55037;52.354;4.992;2023-05-27T10:43:55;41.40;15.50
68217;DHT22;55037;52.354;4.992;2023-05-27T10:46:24;41.90;15.00
68217;DHT22;55037;52.354;4.992;2023-05-27T10:48:52;42.40;14.80
68217;DHT22;55037;52.354;4.992;2023-05-27T10:51:19;42.70;14.60
68217;DHT22;55037;52.354;4.992;2023-05-27T10:53:46;43.20;14.30
68217;DHT22;55037;52.354;4.992;2023-05-27T10:56:20;43.80;13.90
68217;DHT22;55037;52.354;4.992;2023-05-27T10:58:48;44.00;13.50
68217;DHT22;55037;52.354;4.992;2023-05-27T11:01:17;43.80;13.30
68217;DHT22;55037;52.354;4.992;2023-05-27T11:03:45;43.80;13.60
68217;DHT22;55037;52.354;4.992;2023-05-27T11:06:15;44.10;13.60
68217;DHT22;55037;52.354;4.992;2023-05-27T11:08:45;44.50;13.10
68217;DHT22;55037;52.354;4.992;2023-05-27T11:11:13;44.60;13.00
68217;DHT22;55037;52.354;4.992;2023-05-27T11:13:45;44.60;13.00
68217;DHT22;55037;52.354;4.992;2023-05-27T11:16:15;45.00;12.60
68217;DHT22;55037;52.354;4.992;2023-05-27T11:18:45;44.80;12.50
68217;DHT22;55037;52.354;4.992;2023-05-27T11:21:15;44.70;12.70
68217;DHT22;55037;52.354;4.992;2023-05-27T11:23:47;44.80;12.60
68217;DHT22;55037;52.354;4.992;2023-05-27T11:26:22;44.90;12.50
68217;DHT22;55037;52.354;4.992;2023-05-27T11:28:56;45.00;12.60
68217;DHT22;55037;52.354;4.992;2023-05-27T11:31:28;45.40;12.30
68217;DHT22;55037;52.354;4.992;2023-05-27T11:33:57;45.40;12.30
68217;DHT22;55037;52.354;4.992;2023-05-27T11:36:28;45.50;12.20
68217;DHT22;55037;52.354;4.992;2023-05-27T11:39:00;45.80;12.10
68217;DHT22;55037;52.354;4.992;2023-05-27T11:41:29;46.00;11.80
68217;DHT22;55037;52.354;4.992;2023-05-27T11:44:03;46.10;11.80
68217;DHT22;55037;52.354;4.992;2023-05-27T11:46:41;46.10;11.70
68217;DHT22;55037;52.354;4.992;2023-05-27T11:49:10;46.10;11.70
68217;DHT22;55037;52.354;4.992;2023-05-27T11:51:39;46.10;11.70
68217;DHT22;55037;52.354;4.992;2023-05-27T11:54:14;46.00;11.50
68217;DHT22;55037;52.354;4.992;2023-05-27T11:56:42;46.00;11.50
68217;DHT22;55037;52.354;4.992;2023-05-27T11:59:09;46.00;11.70
68217;DHT22;55037;52.354;4.992;2023-05-27T12:01:37;45.90;11.60
68217;DHT22;55037;52.354;4.992;2023-05-27T12:04:04;45.90;11.70
68217;DHT22;55037;52.354;4.992;2023-05-27T12:06:35;46.00;11.70
68217;DHT22;55037;52.354;4.992;2023-05-27T12:09:07;46.00;11.70
68217;DHT22;55037;52.354;4.992;2023-05-27T12:11:35;46.10;11.80
68217;DHT22;55037;52.354;4.992;2023-05-27T12:14:03;46.30;11.60
68217;DHT22;55037;52.354;4.992;2023-05-27T12:16:31;46.20;11.50
68217;DHT22;55037;52.354;4.992;2023-05-27T12:18:58;45.90;11.50
68217;DHT22;55037;52.354;4.992;2023-05-27T12:21:26;45.80;11.70
68217;DHT22;55037;52.354;4.992;2023-05-27T12:23:54;45.70;11.60
68217;DHT22;55037;52.354;4.992;2023-05-27T12:26:21;44.50;12.00
68217;DHT22;55037;52.354;4.992;2023-05-27T12:28:49;44.20;12.40
68217;DHT22;55037;52.354;4.992;2023-05-27T12:31:18;44.50;12.50
68217;DHT22;55037;52.354;4.992;2023-05-27T12:33:46;44.70;12.10
68217;DHT22;55037;52.354;4.992;2023-05-27T12:36:13;44.70;12.10
68217;DHT22;55037;52.354;4.992;2023-05-27T12:38:40;44.60;12.20
68217;DHT22;55037;52.354;4.992;2023-05-27T12:41:08;44.60;12.40
68217;DHT22;55037;52.354;4.992;2023-05-27T12:43:35;44.70;12.40
68217;DHT22;55037;52.354;4.992;2023-05-27T12:46:02;44.80;12.40
68217;DHT22;55037;52.354;4.992;2023-05-27T12:48:30;45.00;12.20
68217;DHT22;55037;52.354;4.992;2023-05-27T12:50:57;45.10;12.20
68217;DHT22;55037;52.354;4.992;2023-05-27T12:53:25;45.00;12.20
68217;DHT22;55037;52.354;4.992;2023-05-27T12:55:52;44.60;12.30
68217;DHT22;55037;52.354;4.992;2023-05-27T12:58:20;44.40;12.40
68217;DHT22;55037;52.354;4.992;2023-05-27T13:00:48;44.00;12.60
68217;DHT22;55037;52.354;4.992;2023-05-27T13:03:16;43.80;12.70
68217;DHT22;55037;52.354;4.992;2023-05-27T13:05:43;43.60;12.80
68217;DHT22;55037;52.354;4.992;2023-05-27T13:08:10;43.60;12.90
68217;DHT22;55037;52.354;4.992;2023-05-27T13:10:38;43.60;12.90
68217;DHT22;55037;52.354;4.992;2023-05-27T13:13:05;43.60;12.80
68217;DHT22;55037;52.354;4.992;2023-05-27T13:15:33;43.40;13.00
68217;DHT22;55037;52.354;4.992;2023-05-27T13:18:00;43.40;13.20
68217;DHT22;55037;52.354;4.992;2023-05-27T13:20:32;43.50;13.20
68217;DHT22;55037;52.354;4.992;2023-05-27T13:23:00;43.60;13.00
68217;DHT22;55037;52.354;4.992;2023-05-27T13:25:29;43.80;13.00
68217;DHT22;55037;52.354;4.992;2023-05-27T13:27:56;43.70;12.90
68217;DHT22;55037;52.354;4.992;2023-05-27T13:30:24;43.30;13.10
68217;DHT22;55037;52.354;4.992;2023-05-27T13:32:54;43.00;13.30
68217;DHT22;55037;52.354;4.992;2023-05-27T13:35:23;42.70;13.50
68217;DHT22;55037;52.354;4.992;2023-05-27T13:37:50;42.40;13.50
68217;DHT22;55037;52.354;4.992;2023-05-27T13:40:17;42.10;13.60
68217;DHT22;55037;52.354;4.992;2023-05-27T13:42:46;41.80;13.80
68217;DHT22;55037;52.354;4.992;2023-05-27T13:45:13;41.30;14.20
68217;DHT22;55037;52.354;4.992;2023-05-27T13:47:41;40.90;14.50
68217;DHT22;55037;52.354;4.992;2023-05-27T13:50:10;40.60;14.70
68217;DHT22;55037;52.354;4.992;2023-05-27T13:52:37;40.20;14.90
68217;DHT22;55037;52.354;4.992;2023-05-27T13:55:06;40.00;15.10
68217;DHT22;55037;52.354;4.992;2023-05-27T13:57:34;39.80;15.10
68217;DHT22;55037;52.354;4.992;2023-05-27T14:00:01;39.70;15.30
68217;DHT22;55037;52.354;4.992;2023-05-27T14:02:30;39.70;15.30
68217;DHT22;55037;52.354;4.992;2023-05-27T14:04:58;39.50;15.30
68217;DHT22;55037;52.354;4.992;2023-05-27T14:07:25;39.30;15.50
68217;DHT22;55037;52.354;4.992;2023-05-27T14:09:55;38.90;15.70
68217;DHT22;55037;52.354;4.992;2023-05-27T14:12:24;38.70;15.90
68217;DHT22;55037;52.354;4.992;2023-05-27T14:14:52;38.60;15.80
68217;DHT22;55037;52.354;4.992;2023-05-27T14:17:20;38.40;15.90
68217;DHT22;55037;52.354;4.992;2023-05-27T14:19:47;38.10;16.40
68217;DHT22;55037;52.354;4.992;2023-05-27T14:22:14;37.90;16.50
68217;DHT22;55037;52.354;4.992;2023-05-27T14:24:42;37.60;16.70
68217;DHT22;55037;52.354;4.992;2023-05-27T14:27:09;37.60;16.70
68217;DHT22;55037;52.354;4.992;2023-05-27T14:29:36;37.60;16.70
68217;DHT22;55037;52.354;4.992;2023-05-27T14:32:06;37.60;16.70
68217;DHT22;55037;52.354;4.992;2023-05-27T14:34:33;37.70;16.70
68217;DHT22;55037;52.354;4.992;2023-05-27T14:37:01;37.70;16.50
68217;DHT22;55037;52.354;4.992;2023-05-27T14:39:28;37.70;16.30
68217;DHT22;55037;52.354;4.992;2023-05-27T14:41:55;37.50;16.40
68217;DHT22;55037;52.354;4.992;2023-05-27T14:44:23;37.40;16.70
68217;DHT22;55037;52.354;4.992;2023-05-27T14:46:50;37.20;16.60
68217;DHT22;55037;52.354;4.992;2023-05-27T14:49:17;37.00;16.80
68217;DHT22;55037;52.354;4.992;2023-05-27T14:51:47;37.00;16.80
68217;DHT22;55037;52.354;4.992;2023-05-27T14:54:14;36.90;16.80
68217;DHT22;55037;52.354;4.992;2023-05-27T14:56:42;36.90;16.80
68217;DHT22;55037;52.354;4.992;2023-05-27T14:59:09;36.90;16.80
68217;DHT22;55037;52.354;4.992;2023-05-27T15:01:36;36.80;16.80
68217;DHT22;55037;52.354;4.992;2023-05-27T15:04:04;36.80;16.90
68217;DHT22;55037;52.354;4.992;2023-05-27T15:06:32;36.90;16.70
68217;DHT22;55037;52.354;4.992;2023-05-27T15:09:00;36.90;16.50
68217;DHT22;55037;52.354;4.992;2023-05-27T15:11:28;36.80;16.70
68217;DHT22;55037;52.354;4.992;2023-05-27T15:13:55;37.00;16.80
68217;DHT22;55037;52.354;4.992;2023-05-27T15:16:23;37.00;16.70
68217;DHT22;55037;52.354;4.992;2023-05-27T15:18:50;36.80;16.60
68217;DHT22;55037;52.354;4.992;2023-05-27T15:21:17;36.60;16.70
68217;DHT22;55037;52.354;4.992;2023-05-27T15:23:47;36.50;16.90
68217;DHT22;55037;52.354;4.992;2023-05-27T15:26:14;36.40;17.00
68217;DHT22;55037;52.354;4.992;2023-05-27T15:28:41;36.20;17.30
68217;DHT22;55037;52.354;4.992;2023-05-27T15:31:09;36.00;17.50
68217;DHT22;55037;52.354;4.992;2023-05-27T15:33:36;36.00;17.70
68217;DHT22;55037;52.354;4.992;2023-05-27T15:36:07;36.10;17.70
68217;DHT22;55037;52.354;4.992;2023-05-27T15:38:34;36.10;17.50
68217;DHT22;55037;52.354;4.992;2023-05-27T15:41:02;36.00;17.60
68217;DHT22;55037;52.354;4.992;2023-05-27T15:43:29;35.90;17.50
68217;DHT22;55037;52.354;4.992;2023-05-27T15:45:57;35.70;17.50
68217;DHT22;55037;52.354;4.992;2023-05-27T15:48:31;35.60;17.70
68217;DHT22;55037;52.354;4.992;2023-05-27T15:50:59;35.70;17.70